createdAt,value
2022-11-14T00:00:03.493Z,8.38
2022-11-14T00:01:03.519Z,8.36
2022-11-14T00:02:03.480Z,8.28
2022-11-14T00:03:03.522Z,8.38
2022-11-14T00:04:03.470Z,8.37
2022-11-14T00:05:03.509Z,8.45
2022-11-14T00:06:03.559Z,8.37
2022-11-14T00:07:03.489Z,8.41
2022-11-14T00:08:03.439Z,8.36
2022-11-14T00:09:03.435Z,8.41
2022-11-14T00:10:03.426Z,8.30
2022-11-14T00:11:03.435Z,8.31
2022-11-14T00:12:03.433Z,8.33
2022-11-14T00:13:03.416Z,8.36
2022-11-14T00:14:03.429Z,8.31
2022-11-14T00:15:03.390Z,8.31
2022-11-14T00:16:03.408Z,8.33
2022-11-14T00:17:03.398Z,8.27
2022-11-14T00:18:03.377Z,8.42
2022-11-14T00:19:03.380Z,8.33
2022-11-14T00:20:03.371Z,8.36
2022-11-14T00:21:03.357Z,8.34
2022-11-14T00:22:03.453Z,8.33
2022-11-14T00:23:03.363Z,8.27
2022-11-14T00:24:03.347Z,8.28
2022-11-14T00:25:03.322Z,8.30
2022-11-14T00:26:03.328Z,8.20
2022-11-14T00:27:03.331Z,8.26
2022-11-14T00:28:03.320Z,8.24
2022-11-14T00:29:03.323Z,8.26
2022-11-14T00:30:03.332Z,8.33
2022-11-14T00:31:03.306Z,8.34
2022-11-14T00:32:03.301Z,8.24
2022-11-14T00:33:03.279Z,8.30
2022-11-14T00:34:03.274Z,8.30
2022-11-14T00:35:03.271Z,8.24
2022-11-14T00:36:03.267Z,8.30
2022-11-14T00:37:03.251Z,8.24
2022-11-14T00:38:03.354Z,8.20
2022-11-14T00:39:03.266Z,8.27
2022-11-14T00:40:03.246Z,8.28
2022-11-14T00:41:03.232Z,8.27
2022-11-14T00:42:03.236Z,8.27
2022-11-14T00:43:03.222Z,8.30
2022-11-14T00:44:03.254Z,8.24
2022-11-14T00:45:03.261Z,8.31
2022-11-14T00:46:03.198Z,8.31
2022-11-14T00:47:03.205Z,8.36
2022-11-14T00:48:03.223Z,8.31
2022-11-14T00:49:03.183Z,8.31
2022-11-14T00:50:03.176Z,8.34
2022-11-14T00:51:03.181Z,8.26
2022-11-14T00:52:03.163Z,8.34
2022-11-14T00:53:03.163Z,8.28
2022-11-14T00:54:03.254Z,8.26
2022-11-14T00:55:03.150Z,8.18
2022-11-14T00:56:03.135Z,8.23
2022-11-14T00:57:03.189Z,8.24
2022-11-14T00:58:03.124Z,8.20
2022-11-14T00:59:03.119Z,8.23
2022-11-14T01:00:03.120Z,8.15
2022-11-14T01:01:03.202Z,8.13
2022-11-14T01:02:03.116Z,8.15
2022-11-14T01:03:03.103Z,8.18
2022-11-14T01:04:03.102Z,8.13
2022-11-14T01:05:03.135Z,8.13
2022-11-14T01:06:03.093Z,8.13
2022-11-14T01:07:03.087Z,8.15
2022-11-14T01:08:03.070Z,8.13
2022-11-14T01:09:03.109Z,8.26
2022-11-14T01:10:03.140Z,8.16
2022-11-14T01:11:03.042Z,8.18
2022-11-14T01:12:03.053Z,8.16
2022-11-14T01:13:03.140Z,8.18
2022-11-14T01:14:03.030Z,8.12
2022-11-14T01:15:03.016Z,8.16
2022-11-14T01:16:03.004Z,8.12
2022-11-14T01:17:03.005Z,8.15
2022-11-14T01:18:03.008Z,8.12
2022-11-14T01:19:03.227Z,8.19
2022-11-14T01:20:02.984Z,8.19
2022-11-14T01:21:02.978Z,8.16
2022-11-14T01:22:06.191Z,8.12
2022-11-14T01:23:02.978Z,8.15
2022-11-14T01:24:02.969Z,8.13
2022-11-14T01:25:02.955Z,8.12
2022-11-14T01:26:03.037Z,8.12
2022-11-14T01:27:03.136Z,8.13
2022-11-14T01:28:02.944Z,8.01
2022-11-14T01:29:02.925Z,8.12
2022-11-14T01:30:02.965Z,8.08
2022-11-14T01:31:02.913Z,8.08
2022-11-14T01:32:02.914Z,8.06
2022-11-14T01:33:02.911Z,8.05
2022-11-14T01:34:02.886Z,8.05
2022-11-14T01:35:02.891Z,8.13
2022-11-14T01:36:02.878Z,8.15
2022-11-14T01:37:02.875Z,8.08
2022-11-14T01:38:02.875Z,8.05
2022-11-14T01:39:02.895Z,8.01
2022-11-14T01:40:02.859Z,8.01
2022-11-14T01:41:02.848Z,8.03
2022-11-14T01:42:02.940Z,8.05
2022-11-14T01:43:02.842Z,8.01
2022-11-14T01:44:02.829Z,8.05
2022-11-14T01:45:02.827Z,8.00
2022-11-14T01:46:02.816Z,7.97
2022-11-14T01:47:02.807Z,8.05
2022-11-14T01:48:02.801Z,8.03
2022-11-14T01:49:02.804Z,8.01
2022-11-14T01:50:02.800Z,8.05
2022-11-14T01:51:02.813Z,8.01
2022-11-14T01:52:02.789Z,8.15
2022-11-14T01:53:02.826Z,8.05
2022-11-14T01:54:02.760Z,8.01
2022-11-14T01:55:02.760Z,8.01
2022-11-14T01:56:02.756Z,8.09
2022-11-14T01:57:02.746Z,8.00
2022-11-14T01:58:02.836Z,8.01
2022-11-14T01:59:02.733Z,8.06
2022-11-14T02:00:02.774Z,8.01
2022-11-14T02:01:02.794Z,8.06
2022-11-14T02:02:02.712Z,8.05
2022-11-14T02:03:02.707Z,7.98
2022-11-14T02:04:05.491Z,7.91
2022-11-14T02:05:02.697Z,7.98
2022-11-14T02:06:02.694Z,8.01
2022-11-14T02:07:02.724Z,7.94
2022-11-14T02:08:02.683Z,7.94
2022-11-14T02:09:02.667Z,7.97
2022-11-14T02:10:02.670Z,8.01
2022-11-14T02:11:02.654Z,7.93
2022-11-14T02:12:02.660Z,8.03
2022-11-14T02:13:02.646Z,8.05
2022-11-14T02:14:02.734Z,8.03
2022-11-14T02:15:02.640Z,8.03
2022-11-14T02:16:02.622Z,8.03
2022-11-14T02:17:27.862Z,8.05
2022-11-14T02:18:02.615Z,8.01
2022-11-14T02:19:02.604Z,7.97
2022-11-14T02:20:05.359Z,8.09
2022-11-14T02:21:02.616Z,7.98
2022-11-14T02:22:02.579Z,8.01
2022-11-14T02:23:02.573Z,8.01
2022-11-14T02:24:02.567Z,8.03
2022-11-14T02:25:02.594Z,8.06
2022-11-14T02:26:02.557Z,8.00
2022-11-14T02:27:02.566Z,8.03
2022-11-14T02:28:02.545Z,8.06
2022-11-14T02:29:02.528Z,7.97
2022-11-14T02:30:02.636Z,8.03
2022-11-14T02:31:02.539Z,7.98
2022-11-14T02:32:05.716Z,7.90
2022-11-14T02:33:11.296Z,8.03
2022-11-14T02:34:02.533Z,8.06
2022-11-14T02:35:02.494Z,8.00
2022-11-14T02:36:02.507Z,8.05
2022-11-14T02:37:02.515Z,8.06
2022-11-14T02:38:02.486Z,8.03
2022-11-14T02:39:02.476Z,8.08
2022-11-14T02:40:02.497Z,8.00
2022-11-14T02:41:02.461Z,8.00
2022-11-14T02:42:02.486Z,8.00
2022-11-14T02:43:02.452Z,8.03
2022-11-14T02:44:02.440Z,8.03
2022-11-14T02:45:02.431Z,8.00
2022-11-14T02:46:05.678Z,8.00
2022-11-14T02:47:02.438Z,8.03
2022-11-14T02:48:02.411Z,8.01
2022-11-14T02:49:02.408Z,8.05
2022-11-14T02:50:02.403Z,8.16
2022-11-14T02:51:02.405Z,8.13
2022-11-14T02:52:02.388Z,8.15
2022-11-14T02:53:02.380Z,8.06
2022-11-14T02:54:02.390Z,8.00
2022-11-14T02:55:02.385Z,8.01
2022-11-14T02:56:02.377Z,8.08
2022-11-14T02:57:02.357Z,8.01
2022-11-14T02:58:02.351Z,8.01
2022-11-14T02:59:02.369Z,8.03
2022-11-14T03:00:02.339Z,8.06
2022-11-14T03:01:26.748Z,8.03
2022-11-14T03:02:02.452Z,8.09
2022-11-14T03:03:02.313Z,7.97
2022-11-14T03:04:02.318Z,8.06
2022-11-14T03:05:02.323Z,8.05
2022-11-14T03:06:02.300Z,8.05
2022-11-14T03:07:02.330Z,8.08
2022-11-14T03:08:02.279Z,8.16
2022-11-14T03:09:02.278Z,8.13
2022-11-14T03:10:02.280Z,8.13
2022-11-14T03:11:02.278Z,8.16
2022-11-14T03:12:02.262Z,8.13
2022-11-14T03:13:02.258Z,8.20
2022-11-14T03:14:02.245Z,8.16
2022-11-14T03:15:02.243Z,8.16
2022-11-14T03:16:02.228Z,8.23
2022-11-14T03:17:02.226Z,8.19
2022-11-14T03:18:02.323Z,8.19
2022-11-14T03:19:02.214Z,8.23
2022-11-14T03:20:02.203Z,8.26
2022-11-14T03:21:02.196Z,8.16
2022-11-14T03:22:02.198Z,8.18
2022-11-14T03:23:02.194Z,8.16
2022-11-14T03:24:02.183Z,8.15
2022-11-14T03:25:02.198Z,8.12
2022-11-14T03:26:02.195Z,8.15
2022-11-14T03:27:02.160Z,8.15
2022-11-14T03:28:02.161Z,8.15
2022-11-14T03:29:02.154Z,8.15
2022-11-14T03:30:02.142Z,8.19
2022-11-14T03:31:02.129Z,8.08
2022-11-14T03:32:02.188Z,8.15
2022-11-14T03:33:02.134Z,8.15
2022-11-14T03:34:02.206Z,8.18
2022-11-14T03:35:02.119Z,8.20
2022-11-14T03:36:02.101Z,8.20
2022-11-14T03:37:02.105Z,8.24
2022-11-14T03:38:02.103Z,8.28
2022-11-14T03:39:02.101Z,8.19
2022-11-14T03:40:02.144Z,8.24
2022-11-14T03:41:02.084Z,8.31
2022-11-14T03:42:02.069Z,8.34
2022-11-14T03:43:02.062Z,8.34
2022-11-14T03:44:02.063Z,8.33
2022-11-14T03:45:02.048Z,8.30
2022-11-14T03:46:02.050Z,8.30
2022-11-14T03:47:02.047Z,8.27
2022-11-14T03:48:02.039Z,8.31
2022-11-14T03:49:02.047Z,8.26
2022-11-14T03:50:02.118Z,8.26
2022-11-14T03:51:02.008Z,8.18
2022-11-14T03:52:02.054Z,8.27
2022-11-14T03:53:02.052Z,8.24
2022-11-14T03:54:01.993Z,8.18
2022-11-14T03:55:01.994Z,8.18
2022-11-14T03:56:01.976Z,8.13
2022-11-14T03:57:01.990Z,8.18
2022-11-14T03:58:01.963Z,8.15
2022-11-14T03:59:01.980Z,8.12
2022-11-14T04:00:01.958Z,8.16
2022-11-14T04:01:02.043Z,8.13
2022-11-14T04:02:01.942Z,8.15
2022-11-14T04:03:01.987Z,8.15
2022-11-14T04:04:01.938Z,8.13
2022-11-14T04:05:01.957Z,8.10
2022-11-14T04:06:02.033Z,8.15
2022-11-14T04:07:01.972Z,8.12
2022-11-14T04:08:01.916Z,8.15
2022-11-14T04:09:01.895Z,8.13
2022-11-14T04:10:01.907Z,8.06
2022-11-14T04:11:01.900Z,8.03
2022-11-14T04:12:01.905Z,8.08
2022-11-14T04:13:01.874Z,8.00
2022-11-14T04:14:01.868Z,8.08
2022-11-14T04:15:01.881Z,8.00
2022-11-14T04:16:01.856Z,7.91
2022-11-14T04:17:01.850Z,8.08
2022-11-14T04:18:01.848Z,7.93
2022-11-14T04:19:01.879Z,7.87
2022-11-14T04:20:01.874Z,7.97
2022-11-14T04:21:01.819Z,7.91
2022-11-14T04:22:01.916Z,7.94
2022-11-14T04:23:01.811Z,7.98
2022-11-14T04:24:03.118Z,7.87
2022-11-14T04:25:01.800Z,7.98
2022-11-14T04:26:01.841Z,7.97
2022-11-14T04:27:01.811Z,7.94
2022-11-14T04:28:01.773Z,7.94
2022-11-14T04:29:01.769Z,7.88
2022-11-14T04:30:01.818Z,7.91
2022-11-14T04:31:01.769Z,7.88
2022-11-14T04:32:01.745Z,7.87
2022-11-14T04:33:01.746Z,7.90
2022-11-14T04:34:01.748Z,7.87
2022-11-14T04:35:01.743Z,7.93
2022-11-14T04:36:01.721Z,7.91
2022-11-14T04:37:01.715Z,7.85
2022-11-14T04:38:01.816Z,7.85
2022-11-14T04:39:01.705Z,7.83
2022-11-14T04:40:01.706Z,7.95
2022-11-14T04:41:01.689Z,7.91
2022-11-14T04:42:01.750Z,7.95
2022-11-14T04:43:01.677Z,7.97
2022-11-14T04:44:01.669Z,7.94
2022-11-14T04:45:01.707Z,7.98
2022-11-14T04:46:01.694Z,7.90
2022-11-14T04:47:01.659Z,7.85
2022-11-14T04:48:01.644Z,7.91
2022-11-14T04:49:01.654Z,7.90
2022-11-14T04:50:08.799Z,7.91
2022-11-14T04:52:05.626Z,7.94
2022-11-14T04:53:05.714Z,7.87
2022-11-14T04:55:09.620Z,7.77
2022-11-14T04:56:09.588Z,7.93
2022-11-14T04:58:13.569Z,7.77
2022-11-14T04:59:18.243Z,7.90
2022-11-14T05:01:06.566Z,7.90
2022-11-14T05:02:06.514Z,7.90
2022-11-14T05:04:10.471Z,7.88
2022-11-14T05:05:10.468Z,7.93
2022-11-14T05:07:14.500Z,7.77
2022-11-14T05:08:14.426Z,7.75
2022-11-14T05:10:18.426Z,7.82
2022-11-14T05:11:18.393Z,7.82
2022-11-14T05:13:22.398Z,7.73
2022-11-14T05:14:22.383Z,7.76
2022-11-14T05:15:22.476Z,7.67
2022-11-14T05:16:22.356Z,7.87
2022-11-14T05:17:22.340Z,7.75
2022-11-14T05:18:22.368Z,7.80
2022-11-14T05:19:22.320Z,7.82
2022-11-14T05:20:22.326Z,7.88
2022-11-14T05:21:22.323Z,7.90
2022-11-14T05:22:22.309Z,7.87
2022-11-14T05:23:22.331Z,7.79
2022-11-14T05:24:22.304Z,7.87
2022-11-14T05:25:22.312Z,7.83
2022-11-14T05:26:22.275Z,7.79
2022-11-14T05:27:22.276Z,7.77
2022-11-14T05:28:22.276Z,7.77
2022-11-14T05:29:22.289Z,7.77
2022-11-14T05:30:22.267Z,7.76
2022-11-14T05:31:22.253Z,7.82
2022-11-14T05:32:22.239Z,7.82
2022-11-14T05:33:22.237Z,7.79
2022-11-14T05:34:22.228Z,7.73
2022-11-14T05:35:22.295Z,7.75
2022-11-14T05:36:22.246Z,7.75
2022-11-14T05:37:22.214Z,7.69
2022-11-14T05:38:22.217Z,7.80
2022-11-14T05:39:22.229Z,7.75
2022-11-14T05:40:22.256Z,7.82
2022-11-14T05:41:22.186Z,7.79
2022-11-14T05:42:22.184Z,7.83
2022-11-14T05:43:22.179Z,7.73
2022-11-14T05:44:22.172Z,7.77
2022-11-14T05:45:22.168Z,7.75
2022-11-14T05:46:22.183Z,7.76
2022-11-14T05:47:22.177Z,7.70
2022-11-14T05:48:22.146Z,7.72
2022-11-14T05:49:22.369Z,7.70
2022-11-14T05:50:22.138Z,7.75
2022-11-14T05:51:22.172Z,7.70
2022-11-14T05:52:22.116Z,7.72
2022-11-14T05:54:21.568Z,7.75
2022-11-14T05:55:24.897Z,7.83
2022-11-14T05:57:25.531Z,7.76
2022-11-14T05:58:25.498Z,7.75
2022-11-14T05:59:25.490Z,7.66
2022-11-14T06:00:25.488Z,7.67
2022-11-14T06:01:25.492Z,7.70
2022-11-14T06:02:25.530Z,7.61
2022-11-14T06:03:25.473Z,7.58
2022-11-14T06:04:25.457Z,7.61
2022-11-14T06:05:25.471Z,7.60
2022-11-14T06:06:25.446Z,7.60
2022-11-14T06:07:25.479Z,7.66
2022-11-14T06:08:25.433Z,7.66
2022-11-14T06:09:25.433Z,7.61
2022-11-14T06:10:25.427Z,7.51
2022-11-14T06:11:25.420Z,7.56
2022-11-14T06:12:25.408Z,7.54
2022-11-14T06:13:25.403Z,7.63
2022-11-14T06:14:25.392Z,7.57
2022-11-14T06:15:25.400Z,7.56
2022-11-14T06:16:25.384Z,7.58
2022-11-14T06:17:25.373Z,7.60
2022-11-14T06:18:25.365Z,7.50
2022-11-14T06:19:25.360Z,7.61
2022-11-14T06:20:25.361Z,7.66
2022-11-14T06:21:25.362Z,7.63
2022-11-14T06:22:25.356Z,7.54
2022-11-14T06:23:25.341Z,7.57
2022-11-14T06:24:25.345Z,7.63
2022-11-14T06:25:25.322Z,7.58
2022-11-14T06:26:25.318Z,7.63
2022-11-14T06:27:25.325Z,7.66
2022-11-14T06:28:25.297Z,7.61
2022-11-14T06:29:25.326Z,7.61
2022-11-14T06:30:25.310Z,7.67
2022-11-14T06:31:25.323Z,7.63
2022-11-14T06:32:25.290Z,7.63
2022-11-14T06:33:25.306Z,7.58
2022-11-14T06:34:25.272Z,7.57
2022-11-14T06:35:25.288Z,7.51
2022-11-14T06:36:25.252Z,7.48
2022-11-14T06:37:25.252Z,7.51
2022-11-14T06:38:25.277Z,7.48
2022-11-14T06:39:25.282Z,7.50
2022-11-14T06:40:25.311Z,7.53
2022-11-14T06:41:25.221Z,7.50
2022-11-14T06:42:25.289Z,7.54
2022-11-14T06:43:25.196Z,7.54
2022-11-14T06:44:29.659Z,7.54
2022-11-14T06:45:25.203Z,7.63
2022-11-14T06:46:25.175Z,7.60
2022-11-14T06:47:25.169Z,7.60
2022-11-14T06:48:25.185Z,7.57
2022-11-14T06:49:25.174Z,7.67
2022-11-14T06:50:25.148Z,7.61
2022-11-14T06:51:25.219Z,7.63
2022-11-14T06:52:25.126Z,7.72
2022-11-14T06:53:25.136Z,7.67
2022-11-14T06:54:25.165Z,7.76
2022-11-14T06:55:25.728Z,7.73
2022-11-14T06:56:25.118Z,7.72
2022-11-14T06:57:25.103Z,7.76
2022-11-14T06:58:25.095Z,7.73
2022-11-14T06:59:25.107Z,7.72
2022-11-14T07:00:25.094Z,7.67
2022-11-14T07:01:25.089Z,7.73
2022-11-14T07:02:25.071Z,7.70
2022-11-14T07:03:25.252Z,7.61
2022-11-14T07:04:25.062Z,7.61
2022-11-14T07:05:25.044Z,7.66
2022-11-14T07:06:25.058Z,7.60
2022-11-14T07:07:25.153Z,7.67
2022-11-14T07:08:25.039Z,7.67
2022-11-14T07:09:25.027Z,7.73
2022-11-14T07:10:25.022Z,7.69
2022-11-14T07:11:25.040Z,7.63
2022-11-14T07:12:25.018Z,7.63
2022-11-14T07:13:25.007Z,7.69
2022-11-14T07:14:25.007Z,7.63
2022-11-14T07:15:24.997Z,7.72
2022-11-14T07:16:24.972Z,7.67
2022-11-14T07:17:29.822Z,7.75
2022-11-14T07:18:24.959Z,7.73
2022-11-14T07:19:24.969Z,7.70
2022-11-14T07:20:24.952Z,7.73
2022-11-14T07:21:24.990Z,7.72
2022-11-14T07:22:24.932Z,7.75
2022-11-14T07:23:24.941Z,7.75
2022-11-14T07:24:24.938Z,7.75
2022-11-14T07:25:24.927Z,7.76
2022-11-14T07:26:24.913Z,7.79
2022-11-14T07:27:24.913Z,7.87
2022-11-14T07:28:24.889Z,7.87
2022-11-14T07:29:24.896Z,7.77
2022-11-14T07:30:24.940Z,7.79
2022-11-14T07:31:24.882Z,7.82
2022-11-14T07:32:24.877Z,7.79
2022-11-14T07:33:24.941Z,7.80
2022-11-14T07:34:24.871Z,7.93
2022-11-14T07:35:24.848Z,7.85
2022-11-14T07:36:24.857Z,7.90
2022-11-14T07:37:24.860Z,7.80
2022-11-14T07:38:24.847Z,7.93
2022-11-14T07:39:24.856Z,7.94
2022-11-14T07:40:24.908Z,7.90
2022-11-14T07:41:24.854Z,7.85
2022-11-14T07:42:24.859Z,7.83
2022-11-14T07:43:24.797Z,7.87
2022-11-14T07:44:24.791Z,7.83
2022-11-14T07:45:24.844Z,7.85
2022-11-14T07:46:24.784Z,7.93
2022-11-14T07:47:24.781Z,8.00
2022-11-14T07:48:24.792Z,7.94
2022-11-14T07:49:24.784Z,7.98
2022-11-14T07:50:24.771Z,7.94
2022-11-14T07:51:24.759Z,8.00
2022-11-14T07:52:24.737Z,7.90
2022-11-14T07:53:24.748Z,8.03
2022-11-14T07:54:24.733Z,8.01
2022-11-14T07:55:24.736Z,8.15
2022-11-14T07:56:24.774Z,8.24
2022-11-14T07:57:24.724Z,8.42
2022-11-14T07:58:24.705Z,8.51
2022-11-14T07:59:24.770Z,8.49
2022-11-14T08:00:24.714Z,8.53
2022-11-14T08:01:24.708Z,8.56
2022-11-14T08:02:24.697Z,8.70
2022-11-14T08:03:24.721Z,8.85
2022-11-14T08:04:24.700Z,8.97
2022-11-14T08:05:24.681Z,9.19
2022-11-14T08:06:24.677Z,9.16
2022-11-14T08:07:24.728Z,9.22
2022-11-14T08:08:24.664Z,9.16
2022-11-14T08:09:24.661Z,8.99
2022-11-14T08:10:26.105Z,9.00
2022-11-14T08:11:34.966Z,8.88
2022-11-14T08:12:24.639Z,8.79
2022-11-14T08:13:32.090Z,8.66
2022-11-14T08:14:24.658Z,8.61
2022-11-14T08:15:24.607Z,8.61
2022-11-14T08:16:24.609Z,8.64
2022-11-14T08:17:24.596Z,8.58
2022-11-14T08:18:24.607Z,8.61
2022-11-14T08:19:24.586Z,8.64
2022-11-14T08:20:24.584Z,8.58
2022-11-14T08:21:24.578Z,8.71
2022-11-14T08:22:24.594Z,8.67
2022-11-14T08:23:24.568Z,8.67
2022-11-14T08:24:24.566Z,8.74
2022-11-14T08:25:24.584Z,8.73
2022-11-14T08:26:24.558Z,8.78
2022-11-14T08:27:24.558Z,8.78
2022-11-14T08:28:24.558Z,8.87
2022-11-14T08:29:24.547Z,8.94
2022-11-14T08:30:24.556Z,8.95
2022-11-14T08:31:24.532Z,8.97
2022-11-14T08:32:24.520Z,9.03
2022-11-14T08:33:24.517Z,9.10
2022-11-14T08:34:24.520Z,9.10
2022-11-14T08:35:24.512Z,9.13
2022-11-14T08:36:24.506Z,9.14
2022-11-14T08:37:24.510Z,9.13
2022-11-14T08:38:24.506Z,9.22
2022-11-14T08:39:24.520Z,9.22
2022-11-14T08:40:24.514Z,9.31
2022-11-14T08:41:24.493Z,9.39
2022-11-14T08:42:24.488Z,9.37
2022-11-14T08:43:24.481Z,9.46
2022-11-14T08:44:24.469Z,9.50
2022-11-14T08:45:24.466Z,9.51
2022-11-14T08:46:24.464Z,9.47
2022-11-14T08:47:24.456Z,9.59
2022-11-14T08:48:24.450Z,9.51
2022-11-14T08:49:24.439Z,9.55
2022-11-14T08:50:24.510Z,9.56
2022-11-14T08:51:24.434Z,9.47
2022-11-14T08:52:24.441Z,9.51
2022-11-14T08:53:24.460Z,9.48
2022-11-14T08:54:24.442Z,9.54
2022-11-14T08:55:24.444Z,9.54
2022-11-14T08:56:24.436Z,9.44
2022-11-14T08:57:24.415Z,9.51
2022-11-14T08:58:24.438Z,9.44
2022-11-14T08:59:24.416Z,9.34
2022-11-14T09:00:24.442Z,9.36
2022-11-14T09:01:24.396Z,9.37
2022-11-14T09:02:24.438Z,9.36
2022-11-14T09:03:24.432Z,9.40
2022-11-14T09:04:24.426Z,9.41
2022-11-14T09:05:24.386Z,9.54
2022-11-14T09:06:24.393Z,9.64
2022-11-14T09:07:24.426Z,9.73
2022-11-14T09:08:24.393Z,9.80
2022-11-14T09:09:24.359Z,9.73
2022-11-14T09:10:24.377Z,9.72
2022-11-14T09:11:24.364Z,9.69
2022-11-14T09:12:24.366Z,9.73
2022-11-14T09:13:24.351Z,9.74
2022-11-14T09:14:24.376Z,9.72
2022-11-14T09:15:24.343Z,9.66
2022-11-14T09:16:24.345Z,9.74
2022-11-14T09:17:24.365Z,9.69
2022-11-14T09:18:24.351Z,9.73
2022-11-14T09:19:24.346Z,9.73
2022-11-14T09:20:29.821Z,9.74
2022-11-14T09:21:24.322Z,9.74
2022-11-14T09:22:24.323Z,9.73
2022-11-14T09:23:24.331Z,9.77
2022-11-14T09:24:24.320Z,9.72
2022-11-14T09:25:24.308Z,9.74
2022-11-14T09:26:24.316Z,9.65
2022-11-14T09:27:24.312Z,9.68
2022-11-14T09:28:24.305Z,9.64
2022-11-14T09:29:24.327Z,9.76
2022-11-14T09:30:24.370Z,9.65
2022-11-14T09:31:24.292Z,9.73
2022-11-14T09:32:24.295Z,9.74
2022-11-14T09:33:24.281Z,9.79
2022-11-14T09:34:24.283Z,9.79
2022-11-14T09:35:24.277Z,9.79
2022-11-14T09:36:24.269Z,9.80
2022-11-14T09:37:24.264Z,9.87
2022-11-14T09:38:24.273Z,9.82
2022-11-14T09:39:24.274Z,9.82
2022-11-14T09:40:24.257Z,9.86
2022-11-14T09:41:24.260Z,9.84
2022-11-14T09:42:24.257Z,9.87
2022-11-14T09:43:24.255Z,9.87
2022-11-14T09:44:24.253Z,9.83
2022-11-14T09:45:24.255Z,9.87
2022-11-14T09:46:24.233Z,9.77
2022-11-14T09:47:24.226Z,9.79
2022-11-14T09:48:24.260Z,9.76
2022-11-14T09:49:24.216Z,9.79
2022-11-14T09:50:26.078Z,9.83
2022-11-14T09:51:24.210Z,9.76
2022-11-14T09:52:24.207Z,9.92
2022-11-14T09:53:24.208Z,9.80
2022-11-14T09:54:24.207Z,9.80
2022-11-14T09:55:24.196Z,9.92
2022-11-14T09:56:24.190Z,9.83
2022-11-14T09:57:24.194Z,9.86
2022-11-14T09:58:24.186Z,9.82
2022-11-14T09:59:24.172Z,9.77
2022-11-14T10:00:24.194Z,9.79
2022-11-14T10:01:24.284Z,9.74
2022-11-14T10:02:24.221Z,9.77
2022-11-14T10:03:24.164Z,9.74
2022-11-14T10:04:24.253Z,9.73
2022-11-14T10:05:24.155Z,9.74
2022-11-14T10:06:24.159Z,9.73
2022-11-14T10:07:24.274Z,9.74
2022-11-14T10:08:24.134Z,9.77
2022-11-14T10:09:28.848Z,9.66
2022-11-14T10:10:24.164Z,9.73
2022-11-14T10:11:24.119Z,9.61
2022-11-14T10:12:24.125Z,9.69
2022-11-14T10:13:24.122Z,9.62
2022-11-14T10:14:24.122Z,9.58
2022-11-14T10:15:24.108Z,9.68
2022-11-14T10:16:24.122Z,9.77
2022-11-14T10:17:24.100Z,9.69
2022-11-14T10:18:24.093Z,9.68
2022-11-14T10:19:24.085Z,9.68
2022-11-14T10:20:24.086Z,9.77
2022-11-14T10:21:24.144Z,9.66
2022-11-14T10:22:24.080Z,9.72
2022-11-14T10:23:24.081Z,9.79
2022-11-14T10:24:24.069Z,9.72
2022-11-14T10:25:24.067Z,9.69
2022-11-14T10:26:24.070Z,9.73
2022-11-14T10:27:24.055Z,9.72
2022-11-14T10:28:24.046Z,9.74
2022-11-14T10:29:24.046Z,9.74
2022-11-14T10:30:24.034Z,9.79
2022-11-14T10:31:24.033Z,9.72
2022-11-14T10:32:24.027Z,9.74
2022-11-14T10:33:24.026Z,9.72
2022-11-14T10:34:24.017Z,9.69
2022-11-14T10:35:24.004Z,9.73
2022-11-14T10:36:24.003Z,9.74
2022-11-14T10:37:23.994Z,9.74
2022-11-14T10:38:23.997Z,9.69
2022-11-14T10:39:23.980Z,9.77
2022-11-14T10:40:24.009Z,9.74
2022-11-14T10:41:49.851Z,9.69
2022-11-14T10:42:23.985Z,9.77
2022-11-14T10:43:23.981Z,9.73
2022-11-14T10:44:24.031Z,9.73
2022-11-14T10:45:23.975Z,9.69
2022-11-14T10:46:23.959Z,9.77
2022-11-14T10:47:23.947Z,9.65
2022-11-14T10:48:24.038Z,9.74
2022-11-14T10:49:23.951Z,9.72
2022-11-14T10:50:31.162Z,9.76
2022-11-14T10:52:17.082Z,9.73
2022-11-14T10:53:17.044Z,9.72
2022-11-14T10:55:32.010Z,9.80
2022-11-14T10:56:21.165Z,9.74
2022-11-14T10:58:25.057Z,9.77
2022-11-14T10:59:25.003Z,9.84
2022-11-14T11:01:17.965Z,9.82
2022-11-14T11:02:17.935Z,9.83
2022-11-14T11:04:22.029Z,9.82
2022-11-14T11:05:21.913Z,9.87
2022-11-14T11:06:21.908Z,9.97
2022-11-14T11:07:21.946Z,9.95
2022-11-14T11:08:51.460Z,9.98
2022-11-14T11:09:21.973Z,9.97
2022-11-14T11:10:21.888Z,9.99
2022-11-14T11:11:21.882Z,10.04
2022-11-14T11:12:21.901Z,10.02
2022-11-14T11:13:21.888Z,10.05
2022-11-14T11:14:21.858Z,10.07
2022-11-14T11:15:21.865Z,10.01
2022-11-14T11:16:21.851Z,10.07
2022-11-14T11:17:21.861Z,10.07
2022-11-14T11:18:21.839Z,10.12
2022-11-14T11:19:21.852Z,10.12
2022-11-14T11:20:21.842Z,10.04
2022-11-14T11:21:21.962Z,10.07
2022-11-14T11:22:21.834Z,10.04
2022-11-14T11:23:21.818Z,10.04
2022-11-14T11:24:21.817Z,10.07
2022-11-14T11:25:21.803Z,10.13
2022-11-14T11:26:21.804Z,10.07
2022-11-14T11:27:21.827Z,10.12
2022-11-14T11:28:21.800Z,10.15
2022-11-14T11:29:21.802Z,10.23
2022-11-14T11:30:21.815Z,10.20
2022-11-14T11:31:21.820Z,10.19
2022-11-14T11:32:21.771Z,10.23
2022-11-14T11:33:21.767Z,10.26
2022-11-14T11:34:21.762Z,10.17
2022-11-14T11:35:21.755Z,10.23
2022-11-14T11:36:21.752Z,10.25
2022-11-14T11:37:21.816Z,10.20
2022-11-14T11:38:21.747Z,10.17
2022-11-14T11:39:21.756Z,10.20
2022-11-14T11:40:21.744Z,10.28
2022-11-14T11:42:02.257Z,10.22
2022-11-14T11:42:21.731Z,10.31
2022-11-14T11:43:38.308Z,10.34
2022-11-14T11:44:21.712Z,10.33
2022-11-14T11:45:21.703Z,10.40
2022-11-14T11:46:21.707Z,10.38
2022-11-14T11:47:21.695Z,10.54
2022-11-14T11:48:21.699Z,10.54
2022-11-14T11:49:21.702Z,10.46
2022-11-14T11:50:21.686Z,10.41
2022-11-14T11:51:21.671Z,10.48
2022-11-14T11:52:21.682Z,10.44
2022-11-14T11:53:21.680Z,10.48
2022-11-14T11:54:21.682Z,10.48
2022-11-14T11:55:21.657Z,10.49
2022-11-14T11:56:21.670Z,10.51
2022-11-14T11:57:22.181Z,10.44
2022-11-14T11:58:21.653Z,10.56
2022-11-14T11:59:21.642Z,10.57
2022-11-14T12:00:21.634Z,10.56
2022-11-14T12:01:21.627Z,10.44
2022-11-14T12:02:21.711Z,10.54
2022-11-14T12:03:21.759Z,10.51
2022-11-14T12:04:21.624Z,10.61
2022-11-14T12:05:21.689Z,10.59
2022-11-14T12:06:21.629Z,10.56
2022-11-14T12:07:21.679Z,10.44
2022-11-14T12:08:21.915Z,10.51
2022-11-14T12:09:21.592Z,10.57
2022-11-14T12:10:21.596Z,10.63
2022-11-14T12:11:21.584Z,10.61
2022-11-14T12:12:21.601Z,10.60
2022-11-14T12:13:21.601Z,10.63
2022-11-14T12:14:21.593Z,10.59
2022-11-14T12:15:21.579Z,10.61
2022-11-14T12:16:21.591Z,10.59
2022-11-14T12:17:21.550Z,10.74
2022-11-14T12:18:21.565Z,10.57
2022-11-14T12:19:21.557Z,10.71
2022-11-14T12:20:21.534Z,10.74
2022-11-14T12:21:21.558Z,10.72
2022-11-14T12:22:21.531Z,10.69
2022-11-14T12:23:21.560Z,10.72
2022-11-14T12:24:21.521Z,10.74
2022-11-14T12:25:21.555Z,10.72
2022-11-14T12:26:21.512Z,10.79
2022-11-14T12:27:21.602Z,10.74
2022-11-14T12:28:21.515Z,10.72
2022-11-14T12:29:25.188Z,10.72
2022-11-14T12:30:21.508Z,10.76
2022-11-14T12:31:21.491Z,10.75
2022-11-14T12:32:21.485Z,10.76
2022-11-14T12:33:21.484Z,10.72
2022-11-14T12:34:21.509Z,10.75
2022-11-14T12:35:21.550Z,10.74
2022-11-14T12:36:42.544Z,10.75
2022-11-14T12:37:32.715Z,10.76
2022-11-14T12:38:21.452Z,10.74
2022-11-14T12:39:21.462Z,10.75
2022-11-14T12:40:21.476Z,10.75
2022-11-14T12:41:21.454Z,10.87
2022-11-14T12:42:21.488Z,10.79
2022-11-14T12:43:21.476Z,10.79
2022-11-14T12:44:21.545Z,10.87
2022-11-14T12:45:21.424Z,10.87
2022-11-14T12:46:21.445Z,10.87
2022-11-14T12:47:21.434Z,10.84
2022-11-14T12:48:21.422Z,10.84
2022-11-14T12:49:21.418Z,10.87
2022-11-14T12:50:21.432Z,10.84
2022-11-14T12:51:21.461Z,10.89
2022-11-14T12:52:21.422Z,10.89
2022-11-14T12:53:21.395Z,10.89
2022-11-14T12:54:21.440Z,10.94
2022-11-14T12:55:21.383Z,10.86
2022-11-14T12:56:21.392Z,10.90
2022-11-14T12:57:21.374Z,10.87
2022-11-14T12:58:21.393Z,10.87
2022-11-14T12:59:21.367Z,10.92
2022-11-14T13:00:21.379Z,10.97
2022-11-14T13:01:21.435Z,10.97
2022-11-14T13:02:22.689Z,10.97
2022-11-14T13:03:21.406Z,10.93
2022-11-14T13:04:21.347Z,10.96
2022-11-14T13:05:21.354Z,11.05
2022-11-14T13:06:21.376Z,10.97
2022-11-14T13:07:21.354Z,10.94
2022-11-14T13:08:21.322Z,10.93
2022-11-14T13:09:21.325Z,10.87
2022-11-14T13:10:21.311Z,11.00
2022-11-14T13:11:21.306Z,10.92
2022-11-14T13:12:21.309Z,10.89
2022-11-14T13:13:21.300Z,11.00
2022-11-14T13:14:21.292Z,10.97
2022-11-14T13:15:21.326Z,10.89
2022-11-14T13:16:21.313Z,10.92
2022-11-14T13:17:21.283Z,11.04
2022-11-14T13:18:21.280Z,10.94
2022-11-14T13:19:21.290Z,10.92
2022-11-14T13:20:21.269Z,10.90
2022-11-14T13:21:21.274Z,10.93
2022-11-14T13:22:21.268Z,10.90
2022-11-14T13:23:21.264Z,10.97
2022-11-14T13:24:21.260Z,10.93
2022-11-14T13:25:21.283Z,11.04
2022-11-14T13:26:21.247Z,10.94
2022-11-14T13:27:27.305Z,10.99
2022-11-14T13:28:24.896Z,10.96